Time;durP1;ratioP1;P1;durP2;ratioP2;P2;SDS_P1;SDS_P2;PMS_P1;PMS_P2;Temp;Humidity;BMP_temperature;BMP_pressure;BME280_temperature;BME280_humidity;BME280_pressure;Samples;Min_cycle;Max_cycle;Signal;HPM_P1;HPM_P2
2022/03/23 00:01:09;;;;;;;9.02;8.07;;;21.00;45.60;;;;;;4971354;28;20053;-58
2022/03/23 00:03:35;;;;;;;9.95;9.10;;;21.10;45.50;;;;;;4973745;28;20085;-59
2022/03/23 00:06:01;;;;;;;9.15;8.35;;;21.10;45.40;;;;;;4974180;28;20062;-58
2022/03/23 00:08:27;;;;;;;9.88;8.63;;;21.00;45.40;;;;;;4988551;28;20051;-59
2022/03/23 00:10:53;;;;;;;9.07;8.18;;;21.00;45.30;;;;;;4970768;28;20742;-59
2022/03/23 00:13:19;;;;;;;10.20;9.02;;;21.00;45.30;;;;;;4974962;28;20058;-58
2022/03/23 00:15:45;;;;;;;9.70;8.80;;;21.00;45.20;;;;;;4986491;28;20050;-59
2022/03/23 00:18:11;;;;;;;9.77;8.80;;;21.00;45.20;;;;;;4972504;28;20544;-60
2022/03/23 00:20:37;;;;;;;10.07;9.07;;;21.00;45.20;;;;;;4973646;28;20038;-60
2022/03/23 00:23:02;;;;;;;9.43;8.52;;;21.00;45.10;;;;;;4973196;28;20109;-61
2022/03/23 00:25:28;;;;;;;10.57;9.32;;;21.00;45.10;;;;;;4973425;28;20086;-61
2022/03/23 00:27:53;;;;;;;10.07;9.18;;;20.90;45.00;;;;;;4972910;28;20133;-59
2022/03/23 00:30:19;;;;;;;9.45;8.55;;;21.00;45.00;;;;;;4974274;28;20058;-59
2022/03/23 00:32:45;;;;;;;9.68;8.70;;;20.90;44.90;;;;;;4971588;28;20052;-59
2022/03/23 00:35:10;;;;;;;10.50;9.50;;;20.90;44.90;;;;;;4973381;28;20228;-60
2022/03/23 00:37:37;;;;;;;9.93;9.02;;;20.90;44.90;;;;;;4973806;28;20062;-60
2022/03/23 00:40:03;;;;;;;9.50;8.60;;;20.90;44.80;;;;;;4977479;28;20062;-59
2022/03/23 00:42:28;;;;;;;10.70;8.80;;;20.90;44.80;;;;;;4974363;28;20070;-59
2022/03/23 00:44:54;;;;;;;10.02;9.02;;;20.90;44.70;;;;;;4972141;28;20391;-58
2022/03/23 00:47:20;;;;;;;10.05;9.07;;;20.90;44.70;;;;;;4955614;28;20057;-59
2022/03/23 00:49:45;;;;;;;10.02;9.02;;;20.90;44.60;;;;;;4972382;28;20086;-59
2022/03/23 00:52:11;;;;;;;10.52;9.40;;;20.90;44.60;;;;;;4977591;28;20272;-59
2022/03/23 00:54:37;;;;;;;10.27;9.30;;;20.90;44.60;;;;;;4978451;28;20177;-59
2022/03/23 00:57:05;;;;;;;10.48;9.57;;;20.90;44.60;;;;;;4977503;28;20046;-59
2022/03/23 00:59:32;;;;;;;9.48;8.65;;;20.90;44.50;;;;;;4978398;28;20125;-59
2022/03/23 01:01:58;;;;;;;10.45;9.38;;;20.80;44.40;;;;;;4975295;28;20481;-58
2022/03/23 01:04:24;;;;;;;10.25;9.23;;;20.80;44.40;;;;;;4978023;28;20054;-59
2022/03/23 01:06:52;;;;;;;10.75;9.75;;;20.90;44.50;;;;;;4975431;28;20089;-60
2022/03/23 01:09:22;;;;;;;9.65;8.75;;;20.80;45.10;;;;;;4975471;28;20050;-59
2022/03/23 01:11:49;;;;;;;10.30;9.30;;;20.80;44.30;;;;;;4977824;28;21026;-59
2022/03/23 01:14:14;;;;;;;10.32;9.25;;;20.80;44.20;;;;;;4976382;28;20046;-60
2022/03/23 01:16:40;;;;;;;10.30;9.30;;;20.90;44.20;;;;;;4975062;28;20368;-60
2022/03/23 01:19:06;;;;;;;10.30;9.30;;;20.80;44.20;;;;;;4978859;28;20050;-59
2022/03/23 01:21:32;;;;;;;11.25;9.80;;;20.80;44.10;;;;;;4977480;28;20501;-59
2022/03/23 01:23:58;;;;;;;9.57;8.68;;;20.80;44.10;;;;;;4976153;28;20797;-59
2022/03/23 01:26:23;;;;;;;10.65;9.55;;;20.80;44.10;;;;;;4958494;28;20101;-58
2022/03/23 01:28:49;;;;;;;10.27;9.25;;;20.80;44.10;;;;;;4977323;28;20046;-59
2022/03/23 01:31:15;;;;;;;9.98;9.07;;;20.80;44.00;;;;;;4976755;28;20360;-59
2022/03/23 01:33:40;;;;;;;10.57;9.57;;;20.80;44.00;;;;;;4977293;28;20537;-59
2022/03/23 01:36:06;;;;;;;10.20;9.20;;;20.80;44.00;;;;;;4975989;28;20046;-59
2022/03/23 01:38:32;;;;;;;9.32;8.52;;;20.80;43.90;;;;;;4977484;28;20473;-60
2022/03/23 01:40:57;;;;;;;10.45;9.43;;;20.80;43.90;;;;;;4976020;28;20037;-60
2022/03/23 01:43:23;;;;;;;10.50;9.50;;;20.70;43.90;;;;;;4974805;28;20074;-60
2022/03/23 01:45:48;;;;;;;10.00;8.98;;;20.80;43.80;;;;;;4975474;28;20047;-59
2022/03/23 01:48:14;;;;;;;9.43;8.52;;;20.70;43.70;;;;;;4976566;28;20054;-59
2022/03/23 01:50:40;;;;;;;10.57;9.48;;;20.70;43.80;;;;;;4976479;28;20531;-58
2022/03/23 01:53:06;;;;;;;10.10;9.20;;;20.70;43.80;;;;;;4981336;28;20071;-58
2022/03/23 01:55:33;;;;;;;10.77;9.68;;;20.70;43.80;;;;;;4972235;28;20054;-59
2022/03/23 01:57:58;;;;;;;10.48;9.48;;;20.70;43.70;;;;;;4975287;28;20140;-57
2022/03/23 02:00:28;;;;;;;11.10;9.85;;;20.70;43.70;;;;;;4980334;28;20068;-59
2022/03/23 02:02:53;;;;;;;11.00;9.57;;;20.70;43.70;;;;;;4974437;28;20061;-58
2022/03/23 02:05:19;;;;;;;9.73;8.68;;;20.70;43.60;;;;;;4974224;28;20046;-59
2022/03/23 02:07:45;;;;;;;10.45;9.45;;;20.70;43.60;;;;;;4973603;28;20062;-59
2022/03/23 02:10:10;;;;;;;10.48;9.48;;;20.70;43.70;;;;;;4973870;28;20050;-60
2022/03/23 02:12:37;;;;;;;10.70;9.70;;;20.70;43.50;;;;;;4975203;28;20053;-59
2022/03/23 02:15:11;;;;;;;9.95;8.95;;;20.70;43.50;;;;;;4974303;28;20046;-59
2022/03/23 02:17:37;;;;;;;10.10;9.15;;;20.70;43.40;;;;;;4974996;28;20051;-59
2022/03/23 02:20:03;;;;;;;9.90;8.93;;;20.70;43.40;;;;;;4973390;28;20042;-59
2022/03/23 02:22:29;;;;;;;10.45;9.35;;;20.60;43.30;;;;;;4974233;28;20059;-60
2022/03/23 02:24:56;;;;;;;11.63;9.80;;;20.60;43.30;;;;;;4972592;28;20050;-58
2022/03/23 02:27:22;;;;;;;11.13;9.95;;;20.60;43.30;;;;;;4976166;28;20054;-58
2022/03/23 02:29:48;;;;;;;10.52;9.35;;;20.60;43.20;;;;;;4972104;28;20035;-59
2022/03/23 02:32:14;;;;;;;10.73;9.73;;;20.60;43.20;;;;;;4972746;28;20058;-58
2022/03/23 02:34:40;;;;;;;10.45;9.45;;;20.60;43.90;;;;;;4973451;28;20596;-58
2022/03/23 02:37:06;;;;;;;9.93;9.02;;;20.60;43.20;;;;;;4975440;28;20061;-59
2022/03/23 02:39:31;;;;;;;10.48;9.35;;;20.60;43.90;;;;;;4973864;28;20065;-60
2022/03/23 02:41:57;;;;;;;10.40;9.48;;;20.60;43.10;;;;;;4971910;28;20574;-59
2022/03/23 02:44:25;;;;;;;10.32;9.43;;;20.60;43.10;;;;;;4977140;28;20050;-59
2022/03/23 02:46:51;;;;;;;10.75;9.68;;;20.60;43.00;;;;;;4972543;28;20050;-58
2022/03/23 02:49:18;;;;;;;10.48;9.48;;;20.60;43.00;;;;;;4975196;28;20078;-58
2022/03/23 02:51:43;;;;;;;9.95;8.95;;;20.60;43.00;;;;;;4975799;28;20605;-57
2022/03/23 03:02:54;;;;;;;10.27;9.38;;;20.60;42.90;;;;;;4966746;28;20070;-60
2022/03/23 03:05:20;;;;;;;10.40;9.40;;;20.50;42.90;;;;;;4969732;28;20072;-58
2022/03/23 03:10:30;;;;;;;10.73;9.63;;;20.50;42.80;;;;;;4973092;28;20046;-58
2022/03/23 03:12:56;;;;;;;10.57;9.57;;;20.50;42.80;;;;;;4973460;28;20050;-58
2022/03/23 03:15:22;;;;;;;10.55;9.55;;;20.50;42.70;;;;;;4972521;28;20749;-58
2022/03/23 03:17:48;;;;;;;10.70;9.68;;;20.50;42.70;;;;;;4972649;28;20156;-58
2022/03/23 03:20:14;;;;;;;11.23;10.07;;;20.50;42.70;;;;;;4968146;28;20135;-58
2022/03/23 03:22:41;;;;;;;10.40;9.40;;;20.50;42.70;;;;;;4971814;28;20548;-60
2022/03/23 03:25:10;;;;;;;10.82;9.82;;;20.50;42.60;;;;;;4975027;28;20073;-58
2022/03/23 03:27:38;;;;;;;10.05;9.15;;;20.50;42.60;;;;;;4974171;28;20058;-58
2022/03/23 03:30:09;;;;;;;11.25;9.48;;;20.50;42.60;;;;;;4970880;28;20089;-59
2022/03/23 03:32:35;;;;;;;11.27;10.10;;;20.50;42.50;;;;;;4974554;28;20097;-58
2022/03/23 03:35:00;;;;;;;10.23;9.32;;;20.50;42.50;;;;;;4973088;28;20046;-58
2022/03/23 03:37:26;;;;;;;10.65;9.75;;;20.40;42.40;;;;;;4974978;28;20053;-60
2022/03/23 03:39:52;;;;;;;10.38;9.40;;;20.50;42.40;;;;;;4973037;28;20849;-58
2022/03/23 03:42:18;;;;;;;10.07;9.07;;;20.50;42.50;;;;;;4973005;28;20066;-58
2022/03/23 03:44:44;;;;;;;10.70;9.60;;;20.40;42.30;;;;;;4974627;28;20055;-58
2022/03/23 03:47:10;;;;;;;10.43;9.43;;;20.50;42.30;;;;;;4973258;28;20050;-59
2022/03/23 03:49:37;;;;;;;10.32;9.32;;;20.40;42.30;;;;;;4971393;28;20259;-59
2022/03/23 03:52:03;;;;;;;10.43;9.43;;;20.50;42.40;;;;;;4972902;28;20691;-58
2022/03/23 03:54:30;;;;;;;10.30;9.32;;;20.40;42.20;;;;;;4973000;28;20062;-60
2022/03/23 03:56:55;;;;;;;10.95;9.85;;;20.40;42.20;;;;;;4988930;28;20622;-58
2022/03/23 03:59:21;;;;;;;12.63;9.88;;;20.40;42.10;;;;;;4972888;28;20073;-58
2022/03/23 04:01:46;;;;;;;10.93;9.85;;;20.40;42.10;;;;;;4977304;28;20043;-58
2022/03/23 04:04:12;;;;;;;10.88;9.75;;;20.40;42.10;;;;;;4970577;28;20758;-58
2022/03/23 04:06:37;;;;;;;10.73;9.63;;;20.40;42.10;;;;;;4973121;28;20046;-58
2022/03/23 04:09:03;;;;;;;10.10;9.10;;;20.40;42.00;;;;;;4973234;28;20039;-59
2022/03/23 04:11:30;;;;;;;11.10;9.98;;;20.40;42.00;;;;;;4973819;28;20129;-59
2022/03/23 04:13:56;;;;;;;10.75;9.65;;;20.40;42.00;;;;;;4971840;28;20055;-59
2022/03/23 04:16:21;;;;;;;10.25;9.25;;;20.40;42.00;;;;;;4972926;28;20049;-60
2022/03/23 04:18:47;;;;;;;10.13;9.15;;;20.40;42.00;;;;;;4972770;28;20326;-59
2022/03/23 04:21:12;;;;;;;10.60;9.57;;;20.40;41.90;;;;;;4974433;28;20051;-59
2022/03/23 04:23:38;;;;;;;10.25;9.25;;;20.40;41.90;;;;;;4974677;28;20061;-59
2022/03/23 04:26:04;;;;;;;10.82;9.75;;;20.40;41.90;;;;;;4977023;28;20750;-58
2022/03/23 04:28:29;;;;;;;10.63;9.35;;;20.40;41.90;;;;;;4977576;28;20057;-59
2022/03/23 04:30:55;;;;;;;10.30;9.27;;;20.40;41.80;;;;;;4977163;28;20046;-59
2022/03/23 04:33:20;;;;;;;10.52;9.38;;;20.30;41.70;;;;;;4976267;28;20046;-60
2022/03/23 04:35:46;;;;;;;9.90;9.00;;;20.30;41.70;;;;;;4974697;28;20552;-60
2022/03/23 04:38:11;;;;;;;10.15;9.18;;;20.30;41.70;;;;;;4977318;28;20494;-59
2022/03/23 04:40:37;;;;;;;10.27;9.23;;;20.30;41.70;;;;;;4976965;28;20046;-59
2022/03/23 04:43:03;;;;;;;10.48;9.48;;;20.30;41.70;;;;;;4976677;28;20518;-60
2022/03/23 04:45:29;;;;;;;10.60;9.60;;;20.30;41.60;;;;;;4975527;28;20042;-59
2022/03/23 04:47:55;;;;;;;10.50;9.48;;;20.30;41.70;;;;;;4977355;28;20050;-59
2022/03/23 04:50:20;;;;;;;10.13;9.13;;;20.30;41.50;;;;;;4988505;28;20078;-60
2022/03/23 04:52:47;;;;;;;10.57;9.48;;;20.30;41.50;;;;;;4977410;28;20055;-59
2022/03/23 04:55:14;;;;;;;10.65;9.25;;;20.30;41.50;;;;;;4974337;28;20070;-60
2022/03/23 04:57:41;;;;;;;10.02;9.13;;;20.30;41.50;;;;;;4977431;28;20100;-60
2022/03/23 05:00:11;;;;;;;9.88;8.88;;;20.30;42.00;;;;;;4974875;28;20045;-60
2022/03/23 05:02:40;;;;;;;10.35;9.35;;;20.30;41.40;;;;;;4971306;28;20048;-60
2022/03/23 05:05:07;;;;;;;10.88;9.70;;;20.30;41.40;;;;;;4974597;28;20038;-59
2022/03/23 05:07:33;;;;;;;10.55;9.55;;;20.30;42.20;;;;;;4989622;28;20463;-59
2022/03/23 05:09:58;;;;;;;10.88;9.77;;;20.30;41.40;;;;;;4977358;28;20126;-59
2022/03/23 05:12:24;;;;;;;10.20;9.20;;;20.30;41.40;;;;;;4975326;28;20513;-59
2022/03/23 05:14:50;;;;;;;10.02;9.02;;;20.30;41.30;;;;;;4978022;28;20046;-59
2022/03/23 05:17:15;;;;;;;10.48;9.02;;;20.30;41.30;;;;;;4973446;28;20102;-59
2022/03/23 05:19:41;;;;;;;9.98;9.07;;;20.20;41.20;;;;;;4974284;28;20521;-60
2022/03/23 05:22:08;;;;;;;10.18;9.18;;;20.30;41.30;;;;;;4973556;28;20165;-59
2022/03/23 05:24:34;;;;;;;11.00;9.77;;;20.20;41.20;;;;;;4989033;28;20105;-59
2022/03/23 05:27:00;;;;;;;10.98;9.82;;;20.20;41.20;;;;;;4974201;28;20455;-59
2022/03/23 05:29:26;;;;;;;9.23;8.43;;;20.20;41.20;;;;;;4974578;28;20097;-59
2022/03/23 05:31:51;;;;;;;10.70;9.00;;;20.20;41.30;;;;;;4975773;28;20066;-59
2022/03/23 05:34:17;;;;;;;9.90;8.90;;;20.20;41.20;;;;;;4976935;28;20129;-59
2022/03/23 05:36:42;;;;;;;10.35;9.02;;;20.20;41.20;;;;;;4978509;28;20462;-60
2022/03/23 05:39:08;;;;;;;9.85;8.95;;;20.20;41.20;;;;;;4978780;28;20069;-58
2022/03/23 05:41:34;;;;;;;12.43;9.88;;;20.20;41.20;;;;;;4977555;28;20046;-59
2022/03/23 05:44:00;;;;;;;10.48;9.40;;;20.20;41.20;;;;;;4988731;28;20446;-58
2022/03/23 05:46:25;;;;;;;9.35;8.45;;;20.20;41.20;;;;;;4975916;28;20089;-59
2022/03/23 05:48:53;;;;;;;10.15;9.18;;;20.20;41.20;;;;;;4976162;28;20078;-60
2022/03/23 05:51:18;;;;;;;9.73;8.65;;;20.20;41.20;;;;;;4960145;28;20053;-59
2022/03/23 05:53:44;;;;;;;10.30;9.30;;;20.20;41.20;;;;;;4975187;28;20059;-59
2022/03/23 05:56:09;;;;;;;9.75;8.75;;;20.20;41.10;;;;;;4974596;28;20062;-60
2022/03/23 05:58:35;;;;;;;10.55;9.45;;;20.20;41.10;;;;;;4972238;28;20053;-59
2022/03/23 06:01:02;;;;;;;10.32;9.32;;;20.20;41.00;;;;;;4978193;28;20117;-60
2022/03/23 06:03:28;;;;;;;10.02;9.02;;;20.20;41.00;;;;;;4973190;28;20058;-59
2022/03/23 06:05:54;;;;;;;9.95;8.95;;;20.20;41.00;;;;;;4975664;28;20074;-58
2022/03/23 06:08:20;;;;;;;10.45;9.45;;;20.20;41.00;;;;;;4979917;28;20082;-60
2022/03/23 06:10:46;;;;;;;10.52;9.40;;;20.20;40.90;;;;;;4972012;28;20046;-59
2022/03/23 06:13:12;;;;;;;10.40;9.40;;;20.10;40.90;;;;;;4977949;28;20081;-59
2022/03/23 06:15:37;;;;;;;11.30;9.60;;;20.20;40.90;;;;;;4975883;28;20050;-59
2022/03/23 06:18:03;;;;;;;11.32;9.52;;;20.10;40.80;;;;;;4973990;28;20054;-59
2022/03/23 06:20:28;;;;;;;10.43;9.32;;;20.10;40.90;;;;;;4975752;28;20050;-59
2022/03/23 06:22:54;;;;;;;10.07;9.07;;;20.10;40.80;;;;;;4975984;28;20130;-59
2022/03/23 06:25:20;;;;;;;9.05;8.15;;;20.10;40.80;;;;;;4973313;28;20059;-59
2022/03/23 06:27:45;;;;;;;10.10;9.00;;;20.10;40.90;;;;;;4974099;28;20035;-59
2022/03/23 06:30:11;;;;;;;9.98;8.75;;;20.10;41.00;;;;;;4973573;28;20046;-61
2022/03/23 06:32:37;;;;;;;9.93;8.88;;;20.10;41.10;;;;;;4963843;28;20154;-60
2022/03/23 06:35:04;;;;;;;9.70;8.73;;;20.20;41.20;;;;;;4973881;28;20117;-59
2022/03/23 06:37:32;;;;;;;11.85;9.80;;;20.20;41.20;;;;;;4970584;28;20064;-61
2022/03/23 06:39:58;;;;;;;10.38;9.30;;;20.20;41.20;;;;;;4972971;28;20058;-61
2022/03/23 06:42:23;;;;;;;10.27;8.48;;;20.20;41.20;;;;;;4974517;28;20051;-60
2022/03/23 06:44:50;;;;;;;9.90;8.90;;;20.20;41.30;;;;;;4981369;28;20057;-59
2022/03/23 06:47:16;;;;;;;11.45;9.18;;;20.20;41.40;;;;;;4974202;28;20061;-58
2022/03/23 06:49:42;;;;;;;9.13;8.27;;;20.20;41.50;;;;;;4976976;28;20049;-58
2022/03/23 06:52:08;;;;;;;9.30;8.48;;;20.20;41.80;;;;;;4975404;28;20082;-59
2022/03/23 06:54:34;;;;;;;9.40;8.40;;;20.20;41.90;;;;;;4973583;28;20516;-59
2022/03/23 06:56:59;;;;;;;9.60;8.52;;;20.20;42.10;;;;;;4974632;28;20043;-59
2022/03/23 06:59:25;;;;;;;9.30;8.38;;;20.20;42.10;;;;;;4971398;28;20054;-59
2022/03/23 07:01:51;;;;;;;9.45;8.45;;;20.20;42.00;;;;;;4971912;28;20046;-59
2022/03/23 07:04:16;;;;;;;8.75;7.90;;;20.20;42.00;;;;;;4971234;28;20100;-59
2022/03/23 07:06:42;;;;;;;8.50;7.68;;;20.30;42.20;;;;;;4972221;28;20364;-59
2022/03/23 07:11:52;;;;;;;11.32;10.05;;;20.30;42.30;;;;;;4976814;28;20050;-58
2022/03/23 07:14:18;;;;;;;10.15;9.15;;;20.30;42.10;;;;;;4973370;28;20047;-59
2022/03/23 07:16:44;;;;;;;10.52;9.63;;;20.30;42.20;;;;;;4975420;28;20046;-59
2022/03/23 07:19:10;;;;;;;11.00;9.18;;;20.30;42.00;;;;;;4972912;28;20053;-59
2022/03/23 07:21:36;;;;;;;11.00;9.90;;;20.30;42.00;;;;;;4979394;28;20054;-60
2022/03/23 07:24:02;;;;;;;11.35;9.68;;;20.30;42.00;;;;;;4974170;28;20046;-59
2022/03/23 07:26:28;;;;;;;11.25;10.15;;;20.40;41.90;;;;;;4972230;28;20038;-60
2022/03/23 07:28:53;;;;;;;11.00;10.02;;;20.30;41.80;;;;;;4975105;28;20051;-59
2022/03/23 07:31:19;;;;;;;11.00;9.88;;;20.30;41.80;;;;;;4971592;28;20061;-60
2022/03/23 07:33:44;;;;;;;10.15;9.23;;;20.40;41.70;;;;;;4972241;28;20161;-60
2022/03/23 07:36:13;;;;;;;9.30;8.40;;;20.40;41.80;;;;;;4973127;28;20549;-59
2022/03/23 07:38:39;;;;;;;11.57;9.75;;;20.30;41.90;;;;;;4974988;28;20053;-59
2022/03/23 07:41:05;;;;;;;10.10;9.13;;;20.40;42.00;;;;;;4974501;28;20042;-59
2022/03/23 07:43:31;;;;;;;10.95;9.25;;;20.40;42.00;;;;;;4974898;28;20097;-59
2022/03/23 07:45:56;;;;;;;10.40;8.60;;;20.40;42.10;;;;;;4975378;28;20058;-59
2022/03/23 07:48:23;;;;;;;9.90;8.82;;;20.40;42.20;;;;;;4970795;28;20054;-60
2022/03/23 07:50:52;;;;;;;9.63;8.10;;;20.40;42.20;;;;;;4975169;28;20665;-59
2022/03/23 07:53:18;;;;;;;9.90;8.75;;;20.40;42.20;;;;;;4972533;28;20050;-59
2022/03/23 07:55:44;;;;;;;9.25;8.35;;;20.40;42.30;;;;;;4970838;28;20168;-60
2022/03/23 07:58:10;;;;;;;8.57;7.70;;;20.40;42.30;;;;;;4971804;28;20046;-59
2022/03/23 08:00:38;;;;;;;10.48;8.52;;;20.40;42.30;;;;;;4971988;28;20521;-59
2022/03/23 08:03:04;;;;;;;8.50;7.70;;;20.40;42.40;;;;;;4971343;28;20453;-59
2022/03/23 08:05:31;;;;;;;9.82;8.90;;;20.50;42.40;;;;;;4974116;28;20553;-59
2022/03/23 08:07:57;;;;;;;10.43;8.98;;;20.50;42.30;;;;;;4973514;28;20050;-60
2022/03/23 08:10:23;;;;;;;8.90;7.88;;;20.40;42.30;;;;;;4966365;28;20057;-59
2022/03/23 08:12:48;;;;;;;10.23;8.05;;;20.50;42.40;;;;;;4969716;28;20326;-59
2022/03/23 08:15:14;;;;;;;9.80;8.90;;;20.50;42.40;;;;;;4973578;28;20054;-59
2022/03/23 08:17:39;;;;;;;8.85;7.90;;;20.50;42.30;;;;;;4974993;28;20074;-59
2022/03/23 08:22:55;;;;;;;9.40;7.82;;;20.50;42.30;;;;;;4973421;28;20054;-59
2022/03/23 08:25:21;;;;;;;11.25;8.43;;;20.50;42.40;;;;;;4973986;28;20100;-61
2022/03/23 08:27:46;;;;;;;8.75;7.85;;;20.50;42.50;;;;;;4972138;28;20042;-60
2022/03/23 08:30:12;;;;;;;8.90;8.00;;;20.50;42.50;;;;;;4972673;28;20046;-60
2022/03/23 08:32:38;;;;;;;10.15;8.40;;;20.50;42.50;;;;;;4971470;28;20043;-60
2022/03/23 08:35:04;;;;;;;9.50;8.02;;;20.50;42.40;;;;;;4973077;28;20538;-60
2022/03/23 08:37:30;;;;;;;8.27;7.47;;;20.50;42.40;;;;;;4971807;28;20525;-59
2022/03/23 08:39:56;;;;;;;8.27;7.47;;;20.50;42.40;;;;;;4973593;28;20039;-59
2022/03/23 08:42:21;;;;;;;11.15;7.97;;;20.50;42.40;;;;;;4968565;28;20046;-60
2022/03/23 08:44:47;;;;;;;8.40;7.63;;;20.50;42.30;;;;;;4971644;28;20108;-58
2022/03/23 08:47:13;;;;;;;8.15;7.35;;;20.50;42.40;;;;;;4972270;28;20054;-59
2022/03/23 08:49:39;;;;;;;9.07;7.85;;;20.50;42.60;;;;;;4971050;28;20144;-59
2022/03/23 08:52:04;;;;;;;12.63;8.00;;;20.50;42.70;;;;;;4971391;28;20058;-58
2022/03/23 08:54:31;;;;;;;8.00;7.20;;;20.50;42.80;;;;;;4971813;28;20145;-58
2022/03/23 08:56:57;;;;;;;8.95;7.43;;;20.50;42.90;;;;;;4974329;28;20138;-58
2022/03/23 08:59:23;;;;;;;9.52;7.15;;;20.50;42.90;;;;;;4970214;28;20050;-58
2022/03/23 09:01:48;;;;;;;10.43;7.40;;;20.60;43.00;;;;;;4971962;28;20046;-58
2022/03/23 09:04:15;;;;;;;9.73;7.10;;;20.60;43.00;;;;;;4969085;28;20564;-59
2022/03/23 09:06:40;;;;;;;8.60;7.05;;;20.60;43.00;;;;;;4977195;28;20117;-57
2022/03/23 09:09:06;;;;;;;9.35;7.70;;;20.60;43.10;;;;;;4972948;28;20054;-58
2022/03/23 09:11:32;;;;;;;7.53;6.82;;;20.60;43.20;;;;;;4972066;28;20504;-59
2022/03/23 09:13:58;;;;;;;7.80;6.82;;;20.60;43.20;;;;;;4970052;28;20057;-59
2022/03/23 09:16:24;;;;;;;6.97;6.35;;;20.60;43.20;;;;;;4972002;28;20050;-58
2022/03/23 09:18:50;;;;;;;7.63;6.82;;;20.60;43.20;;;;;;4974572;28;20045;-58
2022/03/23 09:21:16;;;;;;;6.90;6.15;;;20.60;43.20;;;;;;4973116;28;20039;-57
2022/03/23 09:23:42;;;;;;;7.57;6.45;;;20.60;43.10;;;;;;4973106;28;20054;-58
2022/03/23 09:26:09;;;;;;;7.68;6.90;;;20.60;43.10;;;;;;4975532;28;20069;-59
2022/03/23 09:28:35;;;;;;;7.95;6.68;;;20.60;43.10;;;;;;4974051;28;20077;-58
2022/03/23 09:31:01;;;;;;;7.47;6.78;;;20.60;43.00;;;;;;4977312;28;20467;-58
2022/03/23 09:33:28;;;;;;;6.88;6.28;;;20.60;43.00;;;;;;4972822;28;20046;-58
2022/03/23 09:35:53;;;;;;;6.97;6.28;;;20.60;43.00;;;;;;4973760;28;20042;-59
2022/03/23 09:38:19;;;;;;;6.85;6.32;;;20.60;43.00;;;;;;4972972;28;20412;-57
2022/03/23 09:40:49;;;;;;;7.22;6.63;;;20.60;43.00;;;;;;4971361;28;20081;-58
2022/03/23 09:43:19;;;;;;;7.63;6.82;;;20.60;42.90;;;;;;4972589;28;20042;-59
2022/03/23 09:45:46;;;;;;;7.20;6.50;;;20.60;42.90;;;;;;4972494;28;20073;-58
2022/03/23 09:48:13;;;;;;;7.35;6.65;;;20.60;42.80;;;;;;4974323;28;20573;-58
2022/03/23 09:50:42;;;;;;;7.38;6.68;;;20.60;42.80;;;;;;4975216;28;20101;-58
2022/03/23 09:53:08;;;;;;;7.18;6.45;;;20.60;42.70;;;;;;4973135;28;20688;-58
2022/03/23 09:55:34;;;;;;;7.35;6.25;;;20.60;42.70;;;;;;4973569;28;20433;-58
2022/03/23 09:58:02;;;;;;;7.40;6.30;;;20.60;42.70;;;;;;4972888;28;20506;-59
2022/03/23 10:00:34;;;;;;;6.63;6.00;;;20.70;42.70;;;;;;4973890;28;20050;-58
2022/03/23 10:03:09;;;;;;;7.95;6.40;;;20.60;42.70;;;;;;4975077;28;20054;-57
2022/03/23 10:05:53;;;;;;;6.32;5.82;;;20.70;42.70;;;;;;4972649;28;20145;-58
2022/03/23 10:08:47;;;;;;;7.10;6.10;;;20.70;42.70;;;;;;4972891;28;20056;-58
2022/03/23 10:11:50;;;;;;;7.03;6.32;;;20.70;42.60;;;;;;4974864;28;20046;-59
2022/03/23 10:14:34;;;;;;;7.10;6.32;;;20.70;42.50;;;;;;4973728;28;20405;-57
2022/03/23 10:17:29;;;;;;;6.85;6.25;;;20.70;42.50;;;;;;4988576;28;20055;-57
2022/03/23 10:19:55;;;;;;;7.88;6.65;;;20.70;42.50;;;;;;4975269;28;20058;-58
2022/03/23 10:22:26;;;;;;;6.93;6.32;;;20.60;42.60;;;;;;4973144;28;20050;-59
2022/03/23 10:24:52;;;;;;;5.88;5.38;;;20.60;42.50;;;;;;4973836;28;20951;-58
2022/03/23 10:27:17;;;;;;;6.22;5.63;;;20.60;42.50;;;;;;4974350;28;20065;-58
2022/03/23 10:29:48;;;;;;;6.25;5.65;;;20.70;42.50;;;;;;4967498;28;20042;-58
2022/03/23 10:32:15;;;;;;;5.88;5.38;;;20.70;42.40;;;;;;4972136;28;20038;-59
2022/03/23 10:34:51;;;;;;;5.75;5.25;;;20.70;42.40;;;;;;4973013;28;20399;-58
2022/03/23 10:37:31;;;;;;;6.15;5.55;;;20.70;42.40;;;;;;4973209;28;20563;-59
2022/03/23 10:40:00;;;;;;;6.15;5.63;;;20.70;42.30;;;;;;4989592;28;20944;-58
2022/03/23 10:42:28;;;;;;;5.90;5.40;;;20.70;42.40;;;;;;4974643;28;20046;-58
2022/03/23 10:45:18;;;;;;;6.45;5.90;;;20.70;42.30;;;;;;4972991;28;20082;-57
2022/03/23 10:47:45;;;;;;;5.82;5.22;;;20.70;42.20;;;;;;4975182;28;20445;-58
2022/03/23 10:50:15;;;;;;;6.43;5.72;;;20.70;42.20;;;;;;4972620;28;20117;-59
2022/03/23 10:52:58;;;;;;;5.78;5.28;;;20.70;42.20;;;;;;4973834;28;20233;-58
2022/03/23 10:55:27;;;;;;;6.10;5.60;;;20.70;42.10;;;;;;4973849;28;20058;-60
2022/03/23 10:58:01;;;;;;;5.60;5.10;;;20.70;42.10;;;;;;4974613;28;20128;-60
2022/03/23 11:00:38;;;;;;;5.68;5.18;;;20.70;42.00;;;;;;4970428;28;20180;-58
2022/03/23 11:03:08;;;;;;;6.05;5.47;;;20.70;42.00;;;;;;4972073;28;20050;-58
2022/03/23 11:05:34;;;;;;;5.60;5.07;;;20.70;42.00;;;;;;4970874;28;20054;-59
2022/03/23 11:08:18;;;;;;;5.95;5.45;;;20.70;41.90;;;;;;4972440;28;20054;-59
2022/03/23 11:16:51;;;;;;;5.78;5.18;;;20.70;41.90;;;;;;4973707;28;20133;-58
2022/03/23 11:19:26;;;;;;;6.05;5.45;;;20.70;41.80;;;;;;4971770;28;20052;-59
2022/03/23 11:22:01;;;;;;;5.57;5.13;;;20.70;41.80;;;;;;4972219;28;20137;-59
2022/03/23 11:24:29;;;;;;;5.70;5.22;;;20.70;41.80;;;;;;4973992;28;20086;-60
2022/03/23 11:26:56;;;;;;;5.57;5.00;;;20.70;41.70;;;;;;4972368;28;20057;-60
2022/03/23 11:29:22;;;;;;;6.50;5.15;;;20.70;41.70;;;;;;4973515;28;20166;-59
2022/03/23 11:31:49;;;;;;;5.70;5.10;;;20.70;41.60;;;;;;4974973;28;20062;-58
2022/03/23 11:34:18;;;;;;;5.40;4.90;;;20.70;41.60;;;;;;4970476;28;20046;-58
2022/03/23 11:36:45;;;;;;;7.47;4.80;;;20.70;41.70;;;;;;4971430;28;20150;-59
2022/03/23 11:39:11;;;;;;;5.35;4.85;;;20.70;41.90;;;;;;4974879;28;20046;-58
2022/03/23 11:41:38;;;;;;;7.20;4.70;;;20.70;42.10;;;;;;4972445;28;20058;-60
2022/03/23 11:44:04;;;;;;;5.53;5.03;;;20.70;42.30;;;;;;4972037;28;20141;-59
2022/03/23 11:46:31;;;;;;;5.18;4.78;;;20.70;42.50;;;;;;4973185;28;20046;-59
2022/03/23 11:49:06;;;;;;;6.13;4.82;;;20.70;42.50;;;;;;4973871;28;20502;-60
2022/03/23 11:52:05;;;;;;;5.82;5.22;;;20.70;42.50;;;;;;4973048;28;20124;-58
2022/03/23 11:57:48;;;;;;;5.95;5.35;;;20.80;42.60;;;;;;4975735;28;20054;-58
2022/03/23 12:00:17;;;;;;;6.00;5.43;;;20.80;42.60;;;;;;4973337;28;20059;-59
2022/03/23 12:02:43;;;;;;;4.78;4.38;;;20.80;42.60;;;;;;4975603;28;20042;-59
2022/03/23 12:05:25;;;;;;;6.85;4.65;;;20.80;42.50;;;;;;4969579;28;20130;-59
2022/03/23 12:07:51;;;;;;;5.85;4.82;;;20.80;42.50;;;;;;4973427;28;20081;-58
2022/03/23 12:10:20;;;;;;;6.57;5.07;;;20.80;42.50;;;;;;4973906;28;20043;-58
2022/03/23 12:12:45;;;;;;;5.22;4.72;;;20.80;42.50;;;;;;4974878;28;20490;-59
2022/03/23 12:15:23;;;;;;;5.63;4.60;;;20.80;42.40;;;;;;4972784;28;20053;-58
2022/03/23 12:17:54;;;;;;;5.18;4.78;;;20.80;42.40;;;;;;4974741;28;20078;-58
2022/03/23 12:20:29;;;;;;;5.43;4.93;;;20.80;42.30;;;;;;4975294;28;20046;-59
2022/03/23 12:23:11;;;;;;;6.25;4.63;;;20.80;42.20;;;;;;4972411;28;20046;-59
2022/03/23 12:26:00;;;;;;;8.30;4.07;;;20.80;42.30;;;;;;4973195;28;20157;-58
2022/03/23 12:28:35;;;;;;;6.47;4.40;;;20.80;42.30;;;;;;4973968;28;20058;-58
2022/03/23 12:31:10;;;;;;;5.40;4.90;;;20.80;42.20;;;;;;4971891;28;20114;-58
2022/03/23 12:33:56;;;;;;;5.72;4.88;;;20.80;42.20;;;;;;4974156;28;20089;-58
2022/03/23 12:36:56;;;;;;;8.63;5.07;;;20.80;42.10;;;;;;4971617;28;20446;-59
2022/03/23 12:39:35;;;;;;;5.45;4.60;;;20.80;42.20;;;;;;4971721;28;20401;-59
2022/03/23 12:42:17;;;;;;;6.75;4.70;;;20.80;42.20;;;;;;4975036;28;20046;-58
2022/03/23 12:45:00;;;;;;;7.10;4.97;;;20.80;42.20;;;;;;4974247;28;20042;-58
2022/03/23 12:47:27;;;;;;;7.03;4.63;;;20.80;42.20;;;;;;4981999;28;20577;-59
2022/03/23 12:58:23;;;;;;;5.28;4.78;;;20.80;42.00;;;;;;4975083;28;20499;-58
2022/03/23 13:00:51;;;;;;;5.20;4.00;;;20.80;41.90;;;;;;4975635;28;20042;-58
2022/03/23 13:03:19;;;;;;;4.60;4.20;;;20.80;41.80;;;;;;4975110;28;20403;-58
2022/03/23 13:06:00;;;;;;;5.43;4.93;;;20.80;41.80;;;;;;4977481;28;20129;-59
2022/03/23 13:08:35;;;;;;;4.88;4.38;;;20.80;41.60;;;;;;4975906;28;20490;-58
2022/03/23 13:11:03;;;;;;;5.82;4.90;;;20.80;41.70;;;;;;4976443;28;20050;-58
2022/03/23 13:13:32;;;;;;;6.82;4.70;;;20.80;41.60;;;;;;4982286;28;20161;-58
2022/03/23 13:15:58;;;;;;;7.47;4.82;;;20.80;41.50;;;;;;4974603;28;20058;-58
2022/03/23 13:18:29;;;;;;;7.03;4.75;;;20.80;41.40;;;;;;4974433;28;20058;-58
2022/03/23 13:20:57;;;;;;;7.15;4.65;;;20.80;41.30;;;;;;4972358;28;20046;-59